首页
METAR-TAF:

METAR-TAF

机场 :

Lancaster Airport

兰开斯特, 宾夕法尼亚州, 美国

纬度: 40-07-13N, 经度: 076-17-40W, 海拔: 123米

当前天气观测

该预报发布于1小时和11分钟前的23:53 UTC
风速7节,风向西转西北
温度 23°C
湿度 47%
气压 1014 hPa
能見度: 16.1公里
散云层高于10000英尺

METAR: KLNS 302353Z 30007KT 10SM SCT100 23/11 A2993 RMK AO2 SLP132 T02330111 10272 20233 53004

时间: 21:04 (01:04 UTC)

预报

该预报发布于1小时和38分钟前的23:26 UTC
预报有效从31日的 00点(UTC)到 31日的 24点(UTC)
风速8节,风向西转西北,有时为15节阵风
能見度: 10公里
散云层高于10000英尺
从 31日的 1200点(UTC)
风速12节,风向西北,有时为22节阵风
能見度: 10公里
天空无云

TAF: KLNS 302326Z 3100/3124 30008G15KT P6SM SCT100 FM311200 32012G22KT P6SM SKC

超过4000个机场的气象观测和天气预报(METAR&TAF报告)。

可查询的气象台以黄色和红色小点在地图上表示。

将鼠标移到小点上方,可查看气象台名称。

然后点击查看天气观测和预报。

如需切换地图:点击带黑十字的绿色按钮放大地图;点击带横线的绿色按钮缩小地图;或者点击绿色箭头查看邻近地区的地图。


METAR-TAF: